TimeCST,TemperatureF,Dew PointF,Humidity,Sea Level PressureIn,VisibilityMPH,Wind Direction,Wind SpeedMPH,Gust SpeedMPH,PrecipitationIn,Events,Conditions,WindDirDegrees,DateUTC
12:53 AM,30.9,28.0,89,30.42,10.0,NNE,11.5,-,N/A,,Overcast,20,2013-12-07 06:53:00
1:53 AM,30.0,27.0,88,30.42,10.0,North,12.7,19.6,N/A,,Overcast,10,2013-12-07 07:53:00
2:53 AM,30.0,27.0,88,30.42,10.0,NNE,9.2,-,N/A,,Overcast,20,2013-12-07 08:53:00
3:37 AM,30.2,26.6,86,30.43,10.0,NNE,11.5,-,N/A,,Overcast,20,2013-12-07 09:37:00
3:53 AM,30.0,27.0,88,30.43,10.0,NNE,12.7,19.6,N/A,,Overcast,20,2013-12-07 09:53:00
4:53 AM,30.0,26.1,85,30.44,10.0,NNE,15.0,21.9,N/A,,Overcast,30,2013-12-07 10:53:00
5:53 AM,30.0,26.1,85,30.46,10.0,North,8.1,-,N/A,,Overcast,10,2013-12-07 11:53:00
6:53 AM,30.0,26.1,85,30.47,10.0,NNE,11.5,-,N/A,,Overcast,20,2013-12-07 12:53:00
7:53 AM,30.0,25.0,82,30.48,10.0,North,15.0,23.0,N/A,,Overcast,10,2013-12-07 13:53:00
8:53 AM,30.0,25.0,82,30.50,10.0,North,12.7,-,N/A,,Overcast,10,2013-12-07 14:53:00
9:53 AM,30.0,25.0,82,30.51,10.0,NNE,15.0,-,N/A,,Overcast,20,2013-12-07 15:53:00
10:20 AM,30.2,24.8,80,30.48,10.0,NE,16.1,21.9,N/A,,Overcast,40,2013-12-07 16:20:00
10:53 AM,32.0,25.0,75,30.49,10.0,NNE,13.8,-,N/A,,Overcast,20,2013-12-07 16:53:00
11:53 AM,32.0,25.0,75,30.45,10.0,North,12.7,-,N/A,,Overcast,10,2013-12-07 17:53:00
12:53 PM,33.1,25.0,72,30.43,10.0,NNE,11.5,-,N/A,,Overcast,30,2013-12-07 18:53:00
1:53 PM,34.0,26.1,73,30.40,10.0,NE,13.8,-,N/A,,Overcast,50,2013-12-07 19:53:00
2:53 PM,33.1,26.1,75,30.38,10.0,NE,15.0,-,N/A,,Overcast,50,2013-12-07 20:53:00
3:53 PM,30.9,25.0,79,30.37,10.0,NE,12.7,-,N/A,,Overcast,50,2013-12-07 21:53:00
4:53 PM,30.0,25.0,82,30.38,10.0,NE,10.4,-,0.00,,Overcast,40,2013-12-07 22:53:00
5:53 PM,30.0,25.0,82,30.36,10.0,NNE,11.5,-,0.00,,Overcast,30,2013-12-07 23:53:00
6:53 PM,30.0,25.0,82,30.37,10.0,NE,12.7,-,N/A,,Overcast,40,2013-12-08 00:53:00
7:53 PM,30.0,26.1,85,30.35,10.0,NE,8.1,-,N/A,,Overcast,50,2013-12-08 01:53:00
8:53 PM,30.0,26.1,85,30.36,9.0,NNE,8.1,-,N/A,,Overcast,30,2013-12-08 02:53:00
9:53 PM,30.0,26.1,85,30.36,8.0,NE,8.1,-,N/A,,Overcast,40,2013-12-08 03:53:00
10:50 PM,30.2,26.6,86,30.37,6.0,North,5.8,-,N/A,,Overcast,360,2013-12-08 04:50:00
10:53 PM,30.0,27.0,88,30.37,6.0,North,6.9,-,N/A,,Overcast,360,2013-12-08 04:53:00
11:51 PM,30.2,28.4,93,30.35,2.5,North,5.8,-,N/A,,Overcast,360,2013-12-08 05:51:00
11:53 PM,30.0,28.0,92,30.35,2.5,North,4.6,-,N/A,,Overcast,10,2013-12-08 05:53:00